sensor_id;sensor_type;location;lat;lon;timestamp;pressure;altitude;pressure_sealevel;temperature;humidity
63665;BME280;49820;33.966;73.390;2023-02-14T00:02:07;78919.38;;;3.30;55.46
63665;BME280;49820;33.966;73.390;2023-02-14T00:04:37;78916.03;;;3.11;56.57
63665;BME280;49820;33.966;73.390;2023-02-14T00:07:12;78918.72;;;3.43;56.05
63665;BME280;49820;33.966;73.390;2023-02-14T00:09:41;78929.28;;;3.74;55.96
63665;BME280;49820;33.966;73.390;2023-02-14T00:12:10;78908.16;;;3.39;55.32
63665;BME280;49820;33.966;73.390;2023-02-14T00:14:39;78918.03;;;3.35;56.33
63665;BME280;49820;33.966;73.390;2023-02-14T00:17:27;78936.50;;;3.21;57.89
63665;BME280;49820;33.966;73.390;2023-02-14T00:19:56;78919.94;;;2.84;58.75
63665;BME280;49820;33.966;73.390;2023-02-14T00:22:25;78953.56;;;2.87;59.01
63665;BME280;49820;33.966;73.390;2023-02-14T00:24:55;78933.09;;;2.80;59.54
63665;BME280;49820;33.966;73.390;2023-02-14T00:27:24;78927.78;;;2.69;58.54
63665;BME280;49820;33.966;73.390;2023-02-14T00:29:53;78954.91;;;3.00;58.99
63665;BME280;49820;33.966;73.390;2023-02-14T00:32:24;78956.28;;;3.12;57.55
63665;BME280;49820;33.966;73.390;2023-02-14T00:34:53;78929.75;;;2.69;58.16
63665;BME280;49820;33.966;73.390;2023-02-14T00:37:22;78926.44;;;2.62;59.00
63665;BME280;49820;33.966;73.390;2023-02-14T00:39:52;78927.09;;;2.57;59.82
63665;BME280;49820;33.966;73.390;2023-02-14T00:42:21;78923.06;;;2.46;60.62
63665;BME280;49820;33.966;73.390;2023-02-14T00:44:50;78925.03;;;2.39;60.33
63665;BME280;49820;33.966;73.390;2023-02-14T00:47:19;78905.88;;;2.30;59.52
63665;BME280;49820;33.966;73.390;2023-02-14T00:49:48;78948.28;;;2.81;58.93
63665;BME280;49820;33.966;73.390;2023-02-14T00:52:17;78941.69;;;2.88;56.91
63665;BME280;49820;33.966;73.390;2023-02-14T00:54:47;78936.41;;;2.86;56.62
63665;BME280;49820;33.966;73.390;2023-02-14T00:57:18;78956.91;;;3.02;56.98
63665;BME280;49820;33.966;73.390;2023-02-14T00:59:47;78924.50;;;2.67;57.40
63665;BME280;49820;33.966;73.390;2023-02-14T01:02:17;78954.22;;;2.88;57.92
63665;BME280;49820;33.966;73.390;2023-02-14T01:04:46;78939.66;;;2.66;57.88
63665;BME280;49820;33.966;73.390;2023-02-14T01:07:15;78961.53;;;3.05;56.48
63665;BME280;49820;33.966;73.390;2023-02-14T01:09:44;78960.25;;;3.19;55.71
63665;BME280;49820;33.966;73.390;2023-02-14T01:12:14;78954.34;;;3.30;54.96
63665;BME280;49820;33.966;73.390;2023-02-14T01:14:43;78944.44;;;3.29;54.60
63665;BME280;49820;33.966;73.390;2023-02-14T01:17:12;78941.81;;;3.35;54.78
63665;BME280;49820;33.966;73.390;2023-02-14T01:19:41;78973.53;;;3.65;53.90
63665;BME280;49820;33.966;73.390;2023-02-14T01:22:11;78974.88;;;3.84;52.70
63665;BME280;49820;33.966;73.390;2023-02-14T01:24:40;78981.50;;;3.77;53.57
63665;BME280;49820;33.966;73.390;2023-02-14T01:27:09;78965.63;;;3.71;52.83
63665;BME280;49820;33.966;73.390;2023-02-14T01:29:38;78971.59;;;3.86;52.79
63665;BME280;49820;33.966;73.390;2023-02-14T01:32:08;78961.00;;;3.82;52.76
63665;BME280;49820;33.966;73.390;2023-02-14T01:34:37;78965.63;;;3.77;52.70
63665;BME280;49820;33.966;73.390;2023-02-14T01:37:06;78951.75;;;3.65;52.73
63665;BME280;49820;33.966;73.390;2023-02-14T01:39:35;78986.78;;;3.83;52.68
63665;BME280;49820;33.966;73.390;2023-02-14T01:42:05;78986.81;;;4.04;52.60
63665;BME280;49820;33.966;73.390;2023-02-14T01:47:07;78979.50;;;3.62;54.87
63665;BME280;49820;33.966;73.390;2023-02-14T01:49:41;78955.66;;;3.21;55.48
63665;BME280;49820;33.966;73.390;2023-02-14T01:52:18;78970.13;;;3.12;55.35
63665;BME280;49820;33.966;73.390;2023-02-14T01:54:53;79001.25;;;3.50;54.45
63665;BME280;49820;33.966;73.390;2023-02-14T01:57:28;78991.38;;;3.61;53.52
63665;BME280;49820;33.966;73.390;2023-02-14T02:00:02;78969.59;;;3.64;53.12
63665;BME280;49820;33.966;73.390;2023-02-14T02:02:51;78995.38;;;4.14;52.01
63665;BME280;49820;33.966;73.390;2023-02-14T02:05:21;78976.22;;;4.28;51.49
63665;BME280;49820;33.966;73.390;2023-02-14T02:07:56;78972.88;;;4.58;50.86
63665;BME280;49820;33.966;73.390;2023-02-14T02:10:27;79007.22;;;4.92;52.84
63665;BME280;49820;33.966;73.390;2023-02-14T02:13:02;79010.47;;;5.17;51.42
63665;BME280;49820;33.966;73.390;2023-02-14T02:15:57;79006.41;;;5.43;53.08
63665;BME280;49820;33.966;73.390;2023-02-14T02:24:21;78996.59;;;6.47;50.40
63665;BME280;49820;33.966;73.390;2023-02-14T02:27:27;79019.34;;;7.09;48.94
63665;BME280;49820;33.966;73.390;2023-02-14T03:04:46;79003.00;;;11.27;40.68
63665;BME280;49820;33.966;73.390;2023-02-14T03:10:10;79007.78;;;12.11;40.25
63665;BME280;49820;33.966;73.390;2023-02-14T03:18:56;79014.50;;;12.64;40.09
63665;BME280;49820;33.966;73.390;2023-02-14T03:25:03;79029.81;;;12.41;38.20
63665;BME280;49820;33.966;73.390;2023-02-14T03:27:48;79036.63;;;12.36;36.67
63665;BME280;49820;33.966;73.390;2023-02-14T03:30:43;79049.13;;;12.72;38.53
63665;BME280;49820;33.966;73.390;2023-02-14T03:42:00;79082.13;;;12.38;36.86
63665;BME280;49820;33.966;73.390;2023-02-14T03:44:34;79083.53;;;12.35;39.37
63665;BME280;49820;33.966;73.390;2023-02-14T03:47:11;79100.78;;;12.42;39.79
63665;BME280;49820;33.966;73.390;2023-02-14T03:50:09;79097.81;;;12.54;38.77
63665;BME280;49820;33.966;73.390;2023-02-14T03:52:38;79105.91;;;12.79;36.14
63665;BME280;49820;33.966;73.390;2023-02-14T03:55:08;79068.75;;;12.89;37.78
63665;BME280;49820;33.966;73.390;2023-02-14T03:57:50;79104.91;;;13.44;36.41
63665;BME280;49820;33.966;73.390;2023-02-14T04:00:21;79076.34;;;13.57;34.80
63665;BME280;49820;33.966;73.390;2023-02-14T04:03:00;79112.13;;;13.97;34.85
63665;BME280;49820;33.966;73.390;2023-02-14T04:05:33;79089.88;;;14.01;35.53
63665;BME280;49820;33.966;73.390;2023-02-14T04:08:02;79098.16;;;13.93;36.56
63665;BME280;49820;33.966;73.390;2023-02-14T04:10:31;79095.25;;;14.01;34.16
63665;BME280;49820;33.966;73.390;2023-02-14T04:13:00;79100.06;;;13.96;34.72
63665;BME280;49820;33.966;73.390;2023-02-14T04:15:33;79114.28;;;13.93;34.37
63665;BME280;49820;33.966;73.390;2023-02-14T04:18:03;79121.66;;;13.69;32.76
63665;BME280;49820;33.966;73.390;2023-02-14T04:20:50;79118.03;;;13.54;33.66
63665;BME280;49820;33.966;73.390;2023-02-14T04:23:19;79081.19;;;13.28;34.03
63665;BME280;49820;33.966;73.390;2023-02-14T04:25:49;79106.94;;;13.44;33.62
63665;BME280;49820;33.966;73.390;2023-02-14T04:28:18;79113.22;;;13.07;37.45
63665;BME280;49820;33.966;73.390;2023-02-14T04:30:47;79104.69;;;12.74;34.04
63665;BME280;49820;33.966;73.390;2023-02-14T04:33:16;79109.56;;;12.67;37.21
63665;BME280;49820;33.966;73.390;2023-02-14T04:35:47;79131.00;;;12.67;36.15
63665;BME280;49820;33.966;73.390;2023-02-14T04:38:17;79125.31;;;12.52;39.81
63665;BME280;49820;33.966;73.390;2023-02-14T04:40:48;79137.09;;;12.37;35.64
63665;BME280;49820;33.966;73.390;2023-02-14T04:43:18;79133.97;;;11.97;37.67
63665;BME280;49820;33.966;73.390;2023-02-14T04:45:47;79132.78;;;11.90;36.78
63665;BME280;49820;33.966;73.390;2023-02-14T04:48:16;79152.72;;;11.97;38.89
63665;BME280;49820;33.966;73.390;2023-02-14T04:50:51;79153.03;;;11.83;37.60
63665;BME280;49820;33.966;73.390;2023-02-14T04:53:20;79138.00;;;11.96;39.38
63665;BME280;49820;33.966;73.390;2023-02-14T04:55:50;79142.97;;;11.83;39.60
63665;BME280;49820;33.966;73.390;2023-02-14T04:58:19;79144.28;;;12.15;42.46
63665;BME280;49820;33.966;73.390;2023-02-14T05:00:50;79128.94;;;12.12;41.19
63665;BME280;49820;33.966;73.390;2023-02-14T05:03:20;79147.88;;;12.33;40.98
63665;BME280;49820;33.966;73.390;2023-02-14T05:05:49;79132.94;;;12.13;42.54
63665;BME280;49820;33.966;73.390;2023-02-14T05:08:18;79136.59;;;12.28;40.28
63665;BME280;49820;33.966;73.390;2023-02-14T05:10:48;79154.44;;;12.40;39.82
63665;BME280;49820;33.966;73.390;2023-02-14T05:13:17;79151.13;;;12.66;42.41
63665;BME280;49820;33.966;73.390;2023-02-14T05:15:45;79123.56;;;12.41;40.24
63665;BME280;49820;33.966;73.390;2023-02-14T05:18:16;79157.44;;;12.54;39.69
63665;BME280;49820;33.966;73.390;2023-02-14T05:20:48;79164.91;;;12.79;40.95
63665;BME280;49820;33.966;73.390;2023-02-14T05:23:18;79144.78;;;12.51;40.31
63665;BME280;49820;33.966;73.390;2023-02-14T05:25:48;79170.47;;;12.71;38.03
63665;BME280;49820;33.966;73.390;2023-02-14T05:28:18;79140.88;;;12.46;38.87
63665;BME280;49820;33.966;73.390;2023-02-14T05:30:49;79155.22;;;12.90;39.90
63665;BME280;49820;33.966;73.390;2023-02-14T05:33:23;79183.66;;;13.06;38.52
63665;BME280;49820;33.966;73.390;2023-02-14T05:35:53;79175.69;;;13.04;34.95
63665;BME280;49820;33.966;73.390;2023-02-14T05:38:22;79149.63;;;13.00;36.44
63665;BME280;49820;33.966;73.390;2023-02-14T05:40:51;79153.66;;;13.53;35.18
63665;BME280;49820;33.966;73.390;2023-02-14T05:43:20;79166.59;;;14.19;38.66
63665;BME280;49820;33.966;73.390;2023-02-14T05:45:49;79159.00;;;14.50;36.57
63665;BME280;49820;33.966;73.390;2023-02-14T05:48:18;79160.66;;;15.05;36.76
63665;BME280;49820;33.966;73.390;2023-02-14T05:50:48;79161.59;;;15.60;37.71
63665;BME280;49820;33.966;73.390;2023-02-14T05:53:17;79164.78;;;16.44;37.65
63665;BME280;49820;33.966;73.390;2023-02-14T05:55:46;79162.22;;;16.96;34.67
63665;BME280;49820;33.966;73.390;2023-02-14T05:58:15;79161.72;;;17.27;35.25
63665;BME280;49820;33.966;73.390;2023-02-14T06:00:45;79157.88;;;17.74;32.90
63665;BME280;49820;33.966;73.390;2023-02-14T06:03:14;79163.50;;;17.84;32.18
63665;BME280;49820;33.966;73.390;2023-02-14T06:05:43;79155.00;;;18.59;31.71
63665;BME280;49820;33.966;73.390;2023-02-14T06:08:12;79146.63;;;18.65;32.65
63665;BME280;49820;33.966;73.390;2023-02-14T06:10:41;79149.81;;;19.31;31.79
63665;BME280;49820;33.966;73.390;2023-02-14T06:13:11;79143.19;;;20.01;30.84
63665;BME280;49820;33.966;73.390;2023-02-14T06:15:40;79134.97;;;20.45;30.86
63665;BME280;49820;33.966;73.390;2023-02-14T06:18:10;79139.59;;;20.34;28.64
63665;BME280;49820;33.966;73.390;2023-02-14T06:20:41;79135.22;;;20.54;28.34
63665;BME280;49820;33.966;73.390;2023-02-14T06:23:10;79130.25;;;20.59;26.98
63665;BME280;49820;33.966;73.390;2023-02-14T06:25:40;79139.25;;;21.22;29.10
63665;BME280;49820;33.966;73.390;2023-02-14T06:28:10;79142.81;;;21.19;29.11
63665;BME280;49820;33.966;73.390;2023-02-14T06:30:40;79143.66;;;22.06;27.03
63665;BME280;49820;33.966;73.390;2023-02-14T06:33:10;79141.91;;;20.70;25.23
63665;BME280;49820;33.966;73.390;2023-02-14T06:35:39;79140.50;;;21.63;27.43
63665;BME280;49820;33.966;73.390;2023-02-14T06:38:09;79127.44;;;22.29;27.87
63665;BME280;49820;33.966;73.390;2023-02-14T06:40:38;79117.47;;;22.62;27.40
63665;BME280;49820;33.966;73.390;2023-02-14T06:43:07;79132.31;;;22.88;26.19
63665;BME280;49820;33.966;73.390;2023-02-14T06:45:37;79136.72;;;23.06;29.56
63665;BME280;49820;33.966;73.390;2023-02-14T06:48:06;79129.84;;;23.31;26.00
63665;BME280;49820;33.966;73.390;2023-02-14T06:50:35;79128.47;;;23.42;24.99
63665;BME280;49820;33.966;73.390;2023-02-14T06:53:04;79116.09;;;22.86;24.55
63665;BME280;49820;33.966;73.390;2023-02-14T06:55:33;79130.06;;;22.19;26.27
63665;BME280;49820;33.966;73.390;2023-02-14T06:58:02;79116.34;;;21.95;26.29
63665;BME280;49820;33.966;73.390;2023-02-14T07:00:31;79102.91;;;22.42;27.29
63665;BME280;49820;33.966;73.390;2023-02-14T07:03:00;79087.47;;;22.98;27.90
63665;BME280;49820;33.966;73.390;2023-02-14T07:05:33;79105.16;;;23.79;26.25
63665;BME280;49820;33.966;73.390;2023-02-14T07:08:04;79094.94;;;23.90;28.20
63665;BME280;49820;33.966;73.390;2023-02-14T07:10:35;79075.69;;;23.01;26.24
63665;BME280;49820;33.966;73.390;2023-02-14T07:13:04;79101.69;;;23.34;25.76
63665;BME280;49820;33.966;73.390;2023-02-14T07:15:34;79106.00;;;22.95;26.10
63665;BME280;49820;33.966;73.390;2023-02-14T07:18:04;79084.59;;;22.53;27.56
63665;BME280;49820;33.966;73.390;2023-02-14T07:20:36;79100.97;;;22.64;26.28
63665;BME280;49820;33.966;73.390;2023-02-14T07:23:05;79079.00;;;22.19;27.15
63665;BME280;49820;33.966;73.390;2023-02-14T07:25:34;79075.06;;;21.02;26.91
63665;BME280;49820;33.966;73.390;2023-02-14T07:28:03;79049.47;;;21.62;28.38
63665;BME280;49820;33.966;73.390;2023-02-14T07:30:33;79040.00;;;22.23;27.55
63665;BME280;49820;33.966;73.390;2023-02-14T07:33:03;79016.88;;;22.94;27.09
63665;BME280;49820;33.966;73.390;2023-02-14T07:35:32;79007.09;;;22.63;26.30
63665;BME280;49820;33.966;73.390;2023-02-14T07:38:02;78994.69;;;23.23;25.76
63665;BME280;49820;33.966;73.390;2023-02-14T07:40:32;78982.88;;;21.74;27.58
63665;BME280;49820;33.966;73.390;2023-02-14T07:43:01;78995.16;;;22.22;29.10
63665;BME280;49820;33.966;73.390;2023-02-14T07:45:33;78984.25;;;21.98;27.56
63665;BME280;49820;33.966;73.390;2023-02-14T07:48:03;78978.53;;;22.38;27.58
63665;BME280;49820;33.966;73.390;2023-02-14T07:50:32;78988.81;;;22.85;27.31
63665;BME280;49820;33.966;73.390;2023-02-14T07:53:01;78997.56;;;23.32;25.88
63665;BME280;49820;33.966;73.390;2023-02-14T07:55:34;78986.75;;;23.64;25.42
63665;BME280;49820;33.966;73.390;2023-02-14T07:58:03;78995.50;;;23.32;26.67
63665;BME280;49820;33.966;73.390;2023-02-14T08:00:33;79006.63;;;23.62;25.33
63665;BME280;49820;33.966;73.390;2023-02-14T08:03:02;79014.28;;;23.59;25.97
63665;BME280;49820;33.966;73.390;2023-02-14T08:05:34;79017.88;;;24.01;22.30
63665;BME280;49820;33.966;73.390;2023-02-14T08:08:04;79007.28;;;23.29;26.67
63665;BME280;49820;33.966;73.390;2023-02-14T08:10:33;78999.69;;;22.61;24.93
63665;BME280;49820;33.966;73.390;2023-02-14T08:13:02;78985.00;;;21.48;27.54
63665;BME280;49820;33.966;73.390;2023-02-14T08:15:34;79009.59;;;21.21;27.62
63665;BME280;49820;33.966;73.390;2023-02-14T08:18:22;79000.66;;;20.97;26.79
63665;BME280;49820;33.966;73.390;2023-02-14T08:20:51;79011.75;;;19.86;29.64
63665;BME280;49820;33.966;73.390;2023-02-14T08:23:20;78997.19;;;19.51;30.02
63665;BME280;49820;33.966;73.390;2023-02-14T08:25:50;79009.19;;;19.69;29.73
63665;BME280;49820;33.966;73.390;2023-02-14T08:28:20;78974.34;;;19.88;30.49
63665;BME280;49820;33.966;73.390;2023-02-14T08:30:50;78983.88;;;20.27;26.82
63665;BME280;49820;33.966;73.390;2023-02-14T08:33:20;79011.78;;;20.26;29.05
63665;BME280;49820;33.966;73.390;2023-02-14T08:35:53;79004.28;;;19.86;29.50
63665;BME280;49820;33.966;73.390;2023-02-14T08:38:23;78999.41;;;19.61;26.42
63665;BME280;49820;33.966;73.390;2023-02-14T08:40:52;78991.09;;;20.33;28.97
63665;BME280;49820;33.966;73.390;2023-02-14T08:43:21;78993.25;;;21.46;28.12
63665;BME280;49820;33.966;73.390;2023-02-14T08:45:54;78992.94;;;21.27;24.38
63665;BME280;49820;33.966;73.390;2023-02-14T08:48:24;78991.50;;;22.15;26.15
63665;BME280;49820;33.966;73.390;2023-02-14T08:50:54;78970.88;;;21.94;27.66
63665;BME280;49820;33.966;73.390;2023-02-14T08:53:25;78938.53;;;22.48;28.01
63665;BME280;49820;33.966;73.390;2023-02-14T08:55:54;78953.25;;;23.20;25.91
63665;BME280;49820;33.966;73.390;2023-02-14T08:58:24;78954.72;;;22.86;23.05
63665;BME280;49820;33.966;73.390;2023-02-14T09:00:53;78947.16;;;21.44;23.43
63665;BME280;49820;33.966;73.390;2023-02-14T09:03:23;78944.00;;;22.48;24.54
63665;BME280;49820;33.966;73.390;2023-02-14T09:06:05;78942.50;;;22.15;27.39
63665;BME280;49820;33.966;73.390;2023-02-14T09:08:36;78943.50;;;22.79;25.44
63665;BME280;49820;33.966;73.390;2023-02-14T09:11:08;78928.38;;;22.12;28.21
63665;BME280;49820;33.966;73.390;2023-02-14T09:13:37;78910.97;;;22.88;26.51
63665;BME280;49820;33.966;73.390;2023-02-14T09:16:12;78920.78;;;22.49;27.46
63665;BME280;49820;33.966;73.390;2023-02-14T09:18:42;78905.91;;;22.81;23.33
63665;BME280;49820;33.966;73.390;2023-02-14T09:21:14;78923.81;;;22.89;26.79
63665;BME280;49820;33.966;73.390;2023-02-14T09:23:44;78923.31;;;22.63;26.55
63665;BME280;49820;33.966;73.390;2023-02-14T09:26:14;78929.91;;;22.56;25.38
63665;BME280;49820;33.966;73.390;2023-02-14T09:28:44;78930.69;;;22.77;26.38
63665;BME280;49820;33.966;73.390;2023-02-14T09:31:16;78934.59;;;23.25;22.24
63665;BME280;49820;33.966;73.390;2023-02-14T09:33:48;78926.81;;;22.62;23.71
63665;BME280;49820;33.966;73.390;2023-02-14T09:36:37;78910.88;;;22.09;26.63
63665;BME280;49820;33.966;73.390;2023-02-14T09:39:07;78884.53;;;20.72;24.60
63665;BME280;49820;33.966;73.390;2023-02-14T09:44:32;78912.31;;;21.59;27.85
63665;BME280;49820;33.966;73.390;2023-02-14T09:47:19;78889.47;;;21.18;27.11
63665;BME280;49820;33.966;73.390;2023-02-14T09:49:51;78914.13;;;21.27;28.41
63665;BME280;49820;33.966;73.390;2023-02-14T09:52:26;78909.72;;;20.83;24.87
63665;BME280;49820;33.966;73.390;2023-02-14T09:54:58;78917.53;;;21.15;25.65
63665;BME280;49820;33.966;73.390;2023-02-14T09:57:38;78918.63;;;21.07;26.46
63665;BME280;49820;33.966;73.390;2023-02-14T10:00:19;78919.28;;;20.70;26.24
63665;BME280;49820;33.966;73.390;2023-02-14T10:06:07;78919.94;;;19.37;29.49
63665;BME280;49820;33.966;73.390;2023-02-14T10:11:42;78920.19;;;19.73;28.36
63665;BME280;49820;33.966;73.390;2023-02-14T10:14:15;78930.63;;;19.81;28.62
63665;BME280;49820;33.966;73.390;2023-02-14T10:16:49;78906.88;;;19.82;29.15
63665;BME280;49820;33.966;73.390;2023-02-14T10:19:37;78916.53;;;19.52;29.86
63665;BME280;49820;33.966;73.390;2023-02-14T10:22:17;78923.13;;;19.27;30.79
63665;BME280;49820;33.966;73.390;2023-02-14T10:25:05;78927.31;;;18.53;30.11
63665;BME280;49820;33.966;73.390;2023-02-14T10:27:44;78921.81;;;18.40;30.37
63665;BME280;49820;33.966;73.390;2023-02-14T10:30:20;78931.31;;;18.98;31.14
63665;BME280;49820;33.966;73.390;2023-02-14T10:33:10;78929.25;;;18.98;30.02
63665;BME280;49820;33.966;73.390;2023-02-14T10:35:49;78932.22;;;19.07;32.08
63665;BME280;49820;33.966;73.390;2023-02-14T10:38:54;78927.41;;;18.21;32.01
63665;BME280;49820;33.966;73.390;2023-02-14T10:41:51;78939.78;;;18.16;32.56
63665;BME280;49820;33.966;73.390;2023-02-14T10:44:53;78915.66;;;18.12;32.17
63665;BME280;49820;33.966;73.390;2023-02-14T10:48:01;78932.06;;;18.82;31.94
63665;BME280;49820;33.966;73.390;2023-02-14T10:50:55;78932.81;;;18.51;31.60
63665;BME280;49820;33.966;73.390;2023-02-14T10:54:01;78930.31;;;18.76;30.85
63665;BME280;49820;33.966;73.390;2023-02-14T10:56:41;78926.88;;;18.78;31.21
63665;BME280;49820;33.966;73.390;2023-02-14T10:59:21;78932.31;;;18.02;32.31
63665;BME280;49820;33.966;73.390;2023-02-14T11:01:54;78937.78;;;17.85;33.26
63665;BME280;49820;33.966;73.390;2023-02-14T11:04:24;78922.13;;;17.73;33.34
63665;BME280;49820;33.966;73.390;2023-02-14T11:06:54;78939.84;;;17.85;34.63
63665;BME280;49820;33.966;73.390;2023-02-14T11:09:23;78918.50;;;17.79;32.78
63665;BME280;49820;33.966;73.390;2023-02-14T11:11:54;78940.38;;;17.73;33.53
63665;BME280;49820;33.966;73.390;2023-02-14T11:14:36;78935.03;;;16.91;33.13
63665;BME280;49820;33.966;73.390;2023-02-14T11:17:28;78941.44;;;16.31;34.65
63665;BME280;49820;33.966;73.390;2023-02-14T11:20:01;78944.06;;;16.50;34.06
63665;BME280;49820;33.966;73.390;2023-02-14T11:22:34;78936.16;;;16.29;34.44
63665;BME280;49820;33.966;73.390;2023-02-14T11:25:16;78941.75;;;16.75;34.30
63665;BME280;49820;33.966;73.390;2023-02-14T11:27:49;78938.78;;;16.82;34.37
63665;BME280;49820;33.966;73.390;2023-02-14T11:30:40;78947.28;;;16.71;34.08
63665;BME280;49820;33.966;73.390;2023-02-14T11:33:44;78934.50;;;16.20;35.77
63665;BME280;49820;33.966;73.390;2023-02-14T11:36:14;78913.09;;;15.80;34.79
63665;BME280;49820;33.966;73.390;2023-02-14T11:39:02;78932.69;;;15.79;35.33
63665;BME280;49820;33.966;73.390;2023-02-14T11:42:01;78943.25;;;15.47;35.49
63665;BME280;49820;33.966;73.390;2023-02-14T11:44:33;78936.78;;;15.21;36.81
63665;BME280;49820;33.966;73.390;2023-02-14T11:47:23;78944.88;;;14.82;37.94
63665;BME280;49820;33.966;73.390;2023-02-14T11:50:02;78932.00;;;14.45;38.00
63665;BME280;49820;33.966;73.390;2023-02-14T11:52:51;78940.56;;;14.29;38.40
63665;BME280;49820;33.966;73.390;2023-02-14T11:55:26;78934.34;;;13.93;39.10
63665;BME280;49820;33.966;73.390;2023-02-14T11:57:56;78947.81;;;13.70;40.09
63665;BME280;49820;33.966;73.390;2023-02-14T12:00:26;78932.78;;;13.33;40.34
63665;BME280;49820;33.966;73.390;2023-02-14T12:03:03;78947.03;;;13.28;41.26
63665;BME280;49820;33.966;73.390;2023-02-14T12:05:43;78954.84;;;12.88;41.85
63665;BME280;49820;33.966;73.390;2023-02-14T12:08:15;78950.75;;;12.67;41.48
63665;BME280;49820;33.966;73.390;2023-02-14T12:11:04;78956.38;;;12.32;41.73
63665;BME280;49820;33.966;73.390;2023-02-14T12:13:34;78947.38;;;11.92;42.88
63665;BME280;49820;33.966;73.390;2023-02-14T12:16:18;78944.44;;;11.75;42.42
63665;BME280;49820;33.966;73.390;2023-02-14T12:18:56;78962.66;;;11.66;43.29
63665;BME280;49820;33.966;73.390;2023-02-14T12:21:47;78969.28;;;11.40;43.27
63665;BME280;49820;33.966;73.390;2023-02-14T12:27:48;78966.00;;;11.09;44.59
63665;BME280;49820;33.966;73.390;2023-02-14T12:30:21;78981.97;;;11.11;44.25
63665;BME280;49820;33.966;73.390;2023-02-14T12:32:52;78972.25;;;10.97;44.76
63665;BME280;49820;33.966;73.390;2023-02-14T12:35:53;78975.53;;;11.00;44.76
63665;BME280;49820;33.966;73.390;2023-02-14T12:46:55;78982.59;;;10.50;47.00
63665;BME280;49820;33.966;73.390;2023-02-14T12:49:34;78993.56;;;10.36;47.37
63665;BME280;49820;33.966;73.390;2023-02-14T12:55:35;79004.66;;;10.11;47.54
63665;BME280;49820;33.966;73.390;2023-02-14T13:06:58;79000.84;;;10.00;47.34
63665;BME280;49820;33.966;73.390;2023-02-14T13:09:57;79003.22;;;9.79;47.44
63665;BME280;49820;33.966;73.390;2023-02-14T13:13:02;79007.34;;;9.72;47.43
63665;BME280;49820;33.966;73.390;2023-02-14T13:15:48;78992.63;;;9.36;45.33
63665;BME280;49820;33.966;73.390;2023-02-14T13:21:03;79004.03;;;8.86;49.24
63665;BME280;49820;33.966;73.390;2023-02-14T13:23:45;79026.97;;;8.66;51.46
63665;BME280;49820;33.966;73.390;2023-02-14T13:26:29;79022.00;;;8.36;51.71
63665;BME280;49820;33.966;73.390;2023-02-14T13:29:26;79031.16;;;8.51;50.57
63665;BME280;49820;33.966;73.390;2023-02-14T13:31:57;79035.66;;;8.63;50.80
63665;BME280;49820;33.966;73.390;2023-02-14T13:34:36;79039.66;;;8.62;51.49
63665;BME280;49820;33.966;73.390;2023-02-14T13:37:09;79038.88;;;8.69;51.21
63665;BME280;49820;33.966;73.390;2023-02-14T13:39:57;79038.22;;;8.69;46.27
63665;BME280;49820;33.966;73.390;2023-02-14T13:51:03;79022.22;;;8.73;43.79
63665;BME280;49820;33.966;73.390;2023-02-14T13:53:43;79034.88;;;8.70;45.15
63665;BME280;49820;33.966;73.390;2023-02-14T14:01:48;79037.19;;;8.48;46.56
63665;BME280;49820;33.966;73.390;2023-02-14T14:17:43;78988.22;;;7.65;48.47
63665;BME280;49820;33.966;73.390;2023-02-14T14:22:54;78994.31;;;7.57;49.10
63665;BME280;49820;33.966;73.390;2023-02-14T14:25:36;79012.94;;;7.55;50.34
63665;BME280;49820;33.966;73.390;2023-02-14T14:28:21;79038.78;;;7.63;51.55
63665;BME280;49820;33.966;73.390;2023-02-14T14:30:52;79031.53;;;7.57;53.11
63665;BME280;49820;33.966;73.390;2023-02-14T14:33:25;79029.75;;;7.36;55.11
63665;BME280;49820;33.966;73.390;2023-02-14T14:36:05;79002.88;;;6.97;56.95
63665;BME280;49820;33.966;73.390;2023-02-14T14:38:46;79022.13;;;6.97;57.10
63665;BME280;49820;33.966;73.390;2023-02-14T14:41:17;79020.19;;;6.87;55.81
63665;BME280;49820;33.966;73.390;2023-02-14T14:43:46;79032.69;;;7.01;55.71
63665;BME280;49820;33.966;73.390;2023-02-14T14:46:16;79012.91;;;6.82;56.38
63665;BME280;49820;33.966;73.390;2023-02-14T14:48:47;79045.84;;;7.15;56.31
63665;BME280;49820;33.966;73.390;2023-02-14T14:51:26;79040.53;;;7.19;55.38
63665;BME280;49820;33.966;73.390;2023-02-14T14:54:07;79043.81;;;7.22;54.65
63665;BME280;49820;33.966;73.390;2023-02-14T14:57:01;79052.50;;;7.14;54.89
63665;BME280;49820;33.966;73.390;2023-02-14T14:59:34;79053.88;;;7.09;55.66
63665;BME280;49820;33.966;73.390;2023-02-14T15:02:24;79049.22;;;7.12;56.44
63665;BME280;49820;33.966;73.390;2023-02-14T15:05:18;79030.66;;;7.06;56.48
63665;BME280;49820;33.966;73.390;2023-02-14T15:07:51;79031.94;;;7.11;57.14
63665;BME280;49820;33.966;73.390;2023-02-14T15:10:26;79041.28;;;7.08;56.16
63665;BME280;49820;33.966;73.390;2023-02-14T15:12:58;79024.84;;;6.89;56.09
63665;BME280;49820;33.966;73.390;2023-02-14T15:15:50;79024.97;;;6.71;56.49
63665;BME280;49820;33.966;73.390;2023-02-14T15:18:20;79042.25;;;6.68;56.92
63665;BME280;49820;33.966;73.390;2023-02-14T15:20:52;79037.00;;;6.58;56.88
63665;BME280;49820;33.966;73.390;2023-02-14T15:23:25;79061.50;;;6.66;57.06
63665;BME280;49820;33.966;73.390;2023-02-14T15:25:55;79028.53;;;6.35;57.48
63665;BME280;49820;33.966;73.390;2023-02-14T15:28:33;79066.84;;;6.60;56.74
63665;BME280;49820;33.966;73.390;2023-02-14T15:31:04;79048.97;;;6.53;56.48
63665;BME280;49820;33.966;73.390;2023-02-14T15:33:36;79046.22;;;6.71;55.07
63665;BME280;49820;33.966;73.390;2023-02-14T15:36:07;79011.81;;;6.50;54.65
63665;BME280;49820;33.966;73.390;2023-02-14T15:38:44;79057.16;;;7.14;53.89
63665;BME280;49820;33.966;73.390;2023-02-14T15:41:15;79062.19;;;7.46;52.89